Time;durP1;ratioP1;P1;durP2;ratioP2;P2;SDS_P1;SDS_P2;PMS_P1;PMS_P2;Temp;Humidity;BMP_temperature;BMP_pressure;BME280_temperature;BME280_humidity;BME280_pressure;Samples;Min_cycle;Max_cycle;Signal;HPM_P1;HPM_P2
2022/07/09 00:01:04;;;;;;;;;;;25.40;97.00;;;;;;5125734;28;19911;-49
2022/07/09 00:03:30;;;;;;;;;;;25.40;97.10;;;;;;5126133;28;19910;-49
2022/07/09 00:05:56;;;;;;;;;;;25.40;97.10;;;;;;5125856;28;20216;-56
2022/07/09 00:08:22;;;;;;;;;;;25.40;97.20;;;;;;5125539;28;19939;-56
2022/07/09 00:10:48;;;;;;;;;;;25.40;97.20;;;;;;5125884;28;19944;-53
2022/07/09 00:13:14;;;;;;;;;;;25.40;97.20;;;;;;5125479;28;19903;-58
2022/07/09 00:15:41;;;;;;;;;;;25.30;97.20;;;;;;5125972;28;19918;-51
2022/07/09 00:18:07;;;;;;;;;;;25.40;97.30;;;;;;5125934;28;19986;-49
2022/07/09 00:20:33;;;;;;;;;;;25.40;97.30;;;;;;5126301;28;19911;-50
2022/07/09 00:22:59;;;;;;;;;;;25.40;97.30;;;;;;5125548;28;19939;-51
2022/07/09 00:25:25;;;;;;;;;;;25.30;97.30;;;;;;5126067;28;20172;-49
2022/07/09 00:27:52;;;;;;;;;;;25.40;97.30;;;;;;5125415;28;19918;-52
2022/07/09 00:30:18;;;;;;;;;;;25.30;97.20;;;;;;5126058;28;19925;-53
2022/07/09 00:32:44;;;;;;;;;;;25.30;97.20;;;;;;5125680;28;19911;-52
2022/07/09 00:35:10;;;;;;;;;;;25.30;97.30;;;;;;5126163;28;19916;-49
2022/07/09 00:37:36;;;;;;;;;;;25.30;97.30;;;;;;5107116;28;20135;-55
2022/07/09 00:40:03;;;;;;;;;;;25.30;97.30;;;;;;5125978;28;19960;-50
2022/07/09 00:42:29;;;;;;;;;;;25.30;97.30;;;;;;5124913;28;19907;-54
2022/07/09 00:44:55;;;;;;;;;;;25.30;97.30;;;;;;5125549;28;19908;-55
2022/07/09 00:47:21;;;;;;;;;;;25.30;97.30;;;;;;5125030;28;20088;-57
2022/07/09 00:49:48;;;;;;;;;;;25.30;97.20;;;;;;5125394;28;19908;-53
2022/07/09 00:52:15;;;;;;;;;;;25.30;97.30;;;;;;5120146;28;20192;-48
2022/07/09 00:54:42;;;;;;;;;;;25.30;97.30;;;;;;5118375;28;19950;-51
2022/07/09 00:57:08;;;;;;;;;;;25.30;97.40;;;;;;5124477;28;19915;-54
2022/07/09 00:59:35;;;;;;;;;;;25.20;97.40;;;;;;5122527;28;19908;-51
2022/07/09 01:02:02;;;;;;;;;;;25.20;97.50;;;;;;5123663;28;19914;-50
2022/07/09 01:04:28;;;;;;;;;;;25.20;97.50;;;;;;5123304;28;19908;-48
2022/07/09 01:06:54;;;;;;;;;;;25.20;97.50;;;;;;5124830;28;20044;-55
2022/07/09 01:09:21;;;;;;;;;;;25.20;97.50;;;;;;5127703;28;19926;-53
2022/07/09 01:11:47;;;;;;;;;;;25.20;97.60;;;;;;5128757;28;20081;-51
2022/07/09 01:14:13;;;;;;;;;;;25.10;97.60;;;;;;5110530;28;19915;-55
2022/07/09 01:16:40;;;;;;;;;;;25.10;97.70;;;;;;5128440;28;19950;-49
2022/07/09 01:19:08;;;;;;;;;;;25.10;97.90;;;;;;5128770;28;19918;-58
2022/07/09 01:21:34;;;;;;;;;;;25.10;97.70;;;;;;5128763;28;19911;-53
2022/07/09 01:24:01;;;;;;;;;;;25.10;97.70;;;;;;5128505;28;19915;-55
2022/07/09 01:26:27;;;;;;;;;;;25.10;97.60;;;;;;5115866;28;20101;-49
2022/07/09 01:28:54;;;;;;;;;;;25.10;97.60;;;;;;5116751;28;19909;-50
2022/07/09 01:31:20;;;;;;;;;;;25.00;97.60;;;;;;5109892;28;19911;-50
2022/07/09 01:33:46;;;;;;;;;;;25.00;97.60;;;;;;5125469;28;20130;-49
2022/07/09 01:36:12;;;;;;;;;;;25.00;97.60;;;;;;5121483;28;19943;-53
2022/07/09 01:38:38;;;;;;;;;;;25.00;97.70;;;;;;5122482;28;20171;-51
2022/07/09 01:41:05;;;;;;;;;;;25.00;97.70;;;;;;5120171;28;20018;-54
2022/07/09 01:43:33;;;;;;;;;;;25.00;97.70;;;;;;5123873;28;20192;-51
2022/07/09 01:46:00;;;;;;;;;;;25.10;97.70;;;;;;5131769;27;19942;-51
2022/07/09 01:48:26;;;;;;;;;;;25.00;97.60;;;;;;5130807;27;19978;-53
2022/07/09 01:50:53;;;;;;;;;;;25.00;97.60;;;;;;5116377;27;19914;-51
2022/07/09 01:53:20;;;;;;;;;;;25.00;97.60;;;;;;5148818;27;19904;-56
2022/07/09 01:55:46;;;;;;;;;;;24.90;97.70;;;;;;5137075;27;19916;-49
2022/07/09 01:58:13;;;;;;;;;;;24.90;97.70;;;;;;5118184;28;19919;-53
2022/07/09 02:00:40;;;;;;;;;;;24.90;97.70;;;;;;5127001;28;19961;-51
2022/07/09 02:03:06;;;;;;;;;;;24.90;97.70;;;;;;5127569;28;19956;-53
2022/07/09 02:05:32;;;;;;;;;;;24.90;97.70;;;;;;5127542;28;20076;-47
2022/07/09 02:07:58;;;;;;;;;;;24.90;97.70;;;;;;5116933;28;19943;-50
2022/07/09 02:10:24;;;;;;;;;;;24.90;97.60;;;;;;5115664;28;20223;-52
2022/07/09 02:12:50;;;;;;;;;;;24.90;97.60;;;;;;5145701;27;19919;-51
2022/07/09 02:15:17;;;;;;;;;;;24.90;97.50;;;;;;5123316;28;19970;-49
2022/07/09 02:17:43;;;;;;;;;;;24.90;97.50;;;;;;5126650;28;19916;-48
2022/07/09 02:20:09;;;;;;;;;;;24.90;97.50;;;;;;5140244;27;19908;-51
2022/07/09 02:22:35;;;;;;;;;;;24.90;97.50;;;;;;5129746;27;19976;-51
2022/07/09 02:25:01;;;;;;;;;;;24.90;97.50;;;;;;5120995;28;19908;-49
2022/07/09 02:27:28;;;;;;;;;;;24.90;97.50;;;;;;5129832;27;20227;-53
2022/07/09 02:29:54;;;;;;;;;;;24.90;97.50;;;;;;5121670;28;19908;-51
2022/07/09 02:32:20;;;;;;;;;;;24.90;97.50;;;;;;5122061;27;19975;-57
2022/07/09 02:34:46;;;;;;;;;;;24.90;97.60;;;;;;5126979;28;19924;-53
2022/07/09 02:37:12;;;;;;;;;;;24.80;97.60;;;;;;5124983;28;20108;-54
2022/07/09 02:39:38;;;;;;;;;;;24.80;97.60;;;;;;5124758;28;20125;-55
2022/07/09 02:42:04;;;;;;;;;;;24.80;97.70;;;;;;5126001;27;20153;-56
2022/07/09 02:44:31;;;;;;;;;;;24.80;97.70;;;;;;5106954;28;19908;-55
2022/07/09 02:46:57;;;;;;;;;;;24.80;97.60;;;;;;5118767;27;20195;-56
2022/07/09 02:49:23;;;;;;;;;;;24.90;97.50;;;;;;5126831;28;19912;-55
2022/07/09 02:51:49;;;;;;;;;;;24.90;97.50;;;;;;5137459;27;19937;-56
2022/07/09 02:54:15;;;;;;;;;;;24.90;97.50;;;;;;5131041;27;19953;-56
2022/07/09 02:56:42;;;;;;;;;;;24.90;97.40;;;;;;5126276;28;19970;-57
2022/07/09 02:59:08;;;;;;;;;;;24.90;97.40;;;;;;5126129;28;19912;-56
2022/07/09 03:01:34;;;;;;;;;;;24.90;97.40;;;;;;5135700;27;20091;-58
2022/07/09 03:04:00;;;;;;;;;;;24.90;97.30;;;;;;5146957;27;19941;-57
2022/07/09 03:06:26;;;;;;;;;;;24.90;97.30;;;;;;5146893;27;19907;-56
2022/07/09 03:08:53;;;;;;;;;;;24.90;97.30;;;;;;5147128;27;20245;-54
2022/07/09 03:11:19;;;;;;;;;;;24.90;97.30;;;;;;5146543;27;20190;-55
2022/07/09 03:13:45;;;;;;;;;;;24.90;97.30;;;;;;5146762;27;19907;-59
2022/07/09 03:16:11;;;;;;;;;;;24.90;97.30;;;;;;5146741;27;19908;-58
2022/07/09 03:18:38;;;;;;;;;;;24.90;97.30;;;;;;5131246;27;19942;-57
2022/07/09 03:21:05;;;;;;;;;;;24.90;97.40;;;;;;5120505;28;19934;-56
2022/07/09 03:23:31;;;;;;;;;;;24.90;97.40;;;;;;5124772;28;19907;-58
2022/07/09 03:25:57;;;;;;;;;;;24.90;97.30;;;;;;5123120;28;19908;-56
2022/07/09 03:28:23;;;;;;;;;;;24.90;97.40;;;;;;5123699;28;19946;-59
2022/07/09 03:30:50;;;;;;;;;;;24.90;97.40;;;;;;5125433;27;20555;-59
2022/07/09 03:33:16;;;;;;;;;;;24.90;97.40;;;;;;5119249;28;19923;-55
2022/07/09 03:35:43;;;;;;;;;;;24.90;97.40;;;;;;5112348;27;19927;-59
2022/07/09 03:38:09;;;;;;;;;;;24.90;97.40;;;;;;5146598;27;20226;-55
2022/07/09 03:40:35;;;;;;;;;;;24.90;97.40;;;;;;5147087;27;19904;-57
2022/07/09 03:43:02;;;;;;;;;;;24.90;97.40;;;;;;5122469;27;19939;-57
2022/07/09 03:45:28;;;;;;;;;;;24.90;97.40;;;;;;5108865;28;20173;-55
2022/07/09 03:47:54;;;;;;;;;;;24.90;97.40;;;;;;5145958;27;19913;-59
2022/07/09 03:50:20;;;;;;;;;;;24.90;97.40;;;;;;5146883;27;19946;-56
2022/07/09 03:52:46;;;;;;;;;;;24.90;97.40;;;;;;5144472;27;19911;-58
2022/07/09 03:55:12;;;;;;;;;;;24.90;97.40;;;;;;5124315;27;19943;-58
2022/07/09 03:57:38;;;;;;;;;;;24.90;97.40;;;;;;5124994;28;20321;-59
2022/07/09 04:00:05;;;;;;;;;;;24.90;97.40;;;;;;5119959;28;19915;-56
2022/07/09 04:02:31;;;;;;;;;;;24.90;97.30;;;;;;5120793;28;19915;-55
2022/07/09 04:04:58;;;;;;;;;;;24.90;97.30;;;;;;5123510;28;19914;-60
2022/07/09 04:07:26;;;;;;;;;;;24.90;97.30;;;;;;5120890;28;20010;-55
2022/07/09 04:09:53;;;;;;;;;;;24.90;97.30;;;;;;5117624;28;19908;-56
2022/07/09 04:12:19;;;;;;;;;;;24.90;97.30;;;;;;5119943;28;19920;-56
2022/07/09 04:14:46;;;;;;;;;;;24.90;97.30;;;;;;5119480;28;19975;-59
2022/07/09 04:17:12;;;;;;;;;;;24.90;97.30;;;;;;5125108;28;20297;-56
2022/07/09 04:19:38;;;;;;;;;;;24.90;97.30;;;;;;5125757;28;20017;-56
2022/07/09 04:22:04;;;;;;;;;;;24.90;97.30;;;;;;5125116;28;20192;-59
2022/07/09 04:24:31;;;;;;;;;;;24.90;97.20;;;;;;5117510;28;20235;-59
2022/07/09 04:26:57;;;;;;;;;;;24.90;97.20;;;;;;5121773;28;19941;-56
2022/07/09 04:29:23;;;;;;;;;;;24.90;97.20;;;;;;5124889;28;19989;-57
2022/07/09 04:31:49;;;;;;;;;;;24.90;97.20;;;;;;5124645;28;20140;-56
2022/07/09 04:34:15;;;;;;;;;;;24.90;97.20;;;;;;5124521;28;19957;-57
2022/07/09 04:36:42;;;;;;;;;;;24.90;97.20;;;;;;5124373;28;20134;-56
2022/07/09 04:39:09;;;;;;;;;;;24.90;97.20;;;;;;5125210;28;19912;-55
2022/07/09 04:41:36;;;;;;;;;;;24.90;97.20;;;;;;5124951;28;19911;-59
2022/07/09 04:44:03;;;;;;;;;;;24.90;97.20;;;;;;5124981;28;19907;-58
2022/07/09 04:46:31;;;;;;;;;;;24.90;97.20;;;;;;5125187;28;19914;-55
2022/07/09 04:48:57;;;;;;;;;;;24.90;97.20;;;;;;5125041;28;19954;-56
2022/07/09 04:51:23;;;;;;;;;;;24.90;97.30;;;;;;5124859;28;19915;-59
2022/07/09 04:53:49;;;;;;;;;;;24.90;97.30;;;;;;5124273;28;19915;-59
2022/07/09 04:56:15;;;;;;;;;;;24.90;97.30;;;;;;5118765;28;19936;-55
2022/07/09 04:58:51;;;;;;;;;;;24.90;97.30;;;;;;5119079;28;19936;-57
2022/07/09 05:01:20;;;;;;;;;;;24.90;97.30;;;;;;5113300;28;19946;-60
2022/07/09 05:03:47;;;;;;;;;;;24.90;97.20;;;;;;5104560;28;19915;-58
2022/07/09 05:06:16;;;;;;;;;;;24.90;97.30;;;;;;5104236;28;19908;-58
2022/07/09 05:08:42;;;;;;;;;;;24.90;97.30;;;;;;5104357;28;19908;-57
2022/07/09 05:11:10;;;;;;;;;;;24.90;97.30;;;;;;5117064;28;20200;-58
2022/07/09 05:13:36;;;;;;;;;;;24.80;97.30;;;;;;5123248;28;20088;-56
2022/07/09 05:16:03;;;;;;;;;;;24.90;97.20;;;;;;5123525;28;19971;-56
2022/07/09 05:18:30;;;;;;;;;;;24.80;97.20;;;;;;5112887;28;19912;-59
2022/07/09 05:20:56;;;;;;;;;;;24.80;97.40;;;;;;5124514;28;20101;-55
2022/07/09 05:23:23;;;;;;;;;;;24.80;97.40;;;;;;5124447;28;20091;-57
2022/07/09 05:25:49;;;;;;;;;;;24.80;97.40;;;;;;5124589;28;20163;-55
2022/07/09 05:28:15;;;;;;;;;;;24.80;97.50;;;;;;5124028;28;19935;-59
2022/07/09 05:30:41;;;;;;;;;;;24.80;97.50;;;;;;5122019;28;19918;-54
2022/07/09 05:33:08;;;;;;;;;;;24.80;97.60;;;;;;5123835;28;19910;-56
2022/07/09 05:35:34;;;;;;;;;;;24.80;97.60;;;;;;5119140;28;19916;-56
2022/07/09 05:38:00;;;;;;;;;;;24.80;97.50;;;;;;5123793;28;20107;-56
2022/07/09 05:40:26;;;;;;;;;;;24.80;97.50;;;;;;5122908;28;19935;-60
2022/07/09 05:42:52;;;;;;;;;;;24.80;97.50;;;;;;5123098;28;19915;-57
2022/07/09 05:45:19;;;;;;;;;;;24.80;97.50;;;;;;5124138;28;19903;-59
2022/07/09 05:47:45;;;;;;;;;;;24.70;97.60;;;;;;5124098;28;19915;-56
2022/07/09 05:50:11;;;;;;;;;;;24.80;97.60;;;;;;5127059;28;20061;-55
2022/07/09 05:52:37;;;;;;;;;;;24.80;97.60;;;;;;5127346;28;20197;-57
2022/07/09 05:55:04;;;;;;;;;;;24.80;97.60;;;;;;5127388;28;19934;-55
2022/07/09 05:57:30;;;;;;;;;;;24.80;97.60;;;;;;5127284;28;19931;-55
2022/07/09 05:59:56;;;;;;;;;;;24.80;97.60;;;;;;5127561;28;19904;-56
2022/07/09 06:02:22;;;;;;;;;;;24.80;97.60;;;;;;5121472;28;20204;-56
2022/07/09 06:04:49;;;;;;;;;;;24.80;97.60;;;;;;5107760;28;19966;-56
2022/07/09 06:07:15;;;;;;;;;;;24.80;97.60;;;;;;5107205;28;19908;-60
2022/07/09 06:09:41;;;;;;;;;;;24.80;97.60;;;;;;5111627;28;19953;-55
2022/07/09 06:12:07;;;;;;;;;;;24.80;97.50;;;;;;5127634;28;19922;-60
2022/07/09 06:14:34;;;;;;;;;;;24.80;97.50;;;;;;5127560;28;19946;-57
2022/07/09 06:17:05;;;;;;;;;;;24.80;97.50;;;;;;5127547;28;19935;-50
2022/07/09 06:19:32;;;;;;;;;;;24.80;97.60;;;;;;5127697;28;20191;-56
2022/07/09 06:21:59;;;;;;;;;;;24.80;97.60;;;;;;5127350;28;19975;-55
2022/07/09 06:24:25;;;;;;;;;;;24.80;97.50;;;;;;5127562;28;19907;-56
2022/07/09 06:26:51;;;;;;;;;;;24.80;97.50;;;;;;5127295;28;19915;-56
2022/07/09 06:29:17;;;;;;;;;;;24.80;97.50;;;;;;5127524;28;20237;-58
2022/07/09 06:31:43;;;;;;;;;;;24.80;97.50;;;;;;5127335;28;19929;-55
2022/07/09 06:34:11;;;;;;;;;;;24.80;97.50;;;;;;5127211;28;19949;-57
2022/07/09 06:36:38;;;;;;;;;;;24.80;97.40;;;;;;5127006;28;19907;-56
2022/07/09 06:41:49;;;;;;;;;;;24.80;97.40;;;;;;5126964;28;19945;-56
2022/07/09 06:44:15;;;;;;;;;;;24.70;97.40;;;;;;5126983;28;19908;-58
2022/07/09 06:46:41;;;;;;;;;;;24.70;97.50;;;;;;5127028;28;19918;-57
2022/07/09 06:49:07;;;;;;;;;;;24.70;97.50;;;;;;5113156;28;19943;-52
2022/07/09 06:51:33;;;;;;;;;;;24.70;97.40;;;;;;5106364;28;19947;-56
2022/07/09 06:53:59;;;;;;;;;;;24.70;97.50;;;;;;5106613;28;19911;-58
2022/07/09 06:56:26;;;;;;;;;;;24.80;97.50;;;;;;5106730;28;19915;-58
2022/07/09 06:58:52;;;;;;;;;;;24.70;97.50;;;;;;5106231;28;20314;-55
2022/07/09 07:01:18;;;;;;;;;;;24.70;97.50;;;;;;5106336;28;19916;-59
2022/07/09 07:03:44;;;;;;;;;;;24.70;97.50;;;;;;5106292;28;20203;-57
2022/07/09 07:06:10;;;;;;;;;;;24.70;97.50;;;;;;5106087;28;19915;-55
2022/07/09 07:08:36;;;;;;;;;;;24.70;97.60;;;;;;5106053;28;19940;-55
2022/07/09 07:11:03;;;;;;;;;;;24.70;97.60;;;;;;5105830;28;19912;-54
2022/07/09 07:13:29;;;;;;;;;;;24.70;97.60;;;;;;5105299;28;19904;-55
2022/07/09 07:15:55;;;;;;;;;;;24.70;97.60;;;;;;5106198;28;19908;-56
2022/07/09 07:18:21;;;;;;;;;;;24.70;97.60;;;;;;5106064;28;20192;-55
2022/07/09 07:20:47;;;;;;;;;;;24.70;97.60;;;;;;5105978;28;19974;-56
2022/07/09 07:23:15;;;;;;;;;;;24.70;97.60;;;;;;5105898;28;20155;-56
2022/07/09 07:25:41;;;;;;;;;;;24.70;97.60;;;;;;5105824;28;19908;-53
2022/07/09 07:28:07;;;;;;;;;;;24.70;97.60;;;;;;5105746;28;19905;-55
2022/07/09 07:30:34;;;;;;;;;;;24.70;97.60;;;;;;5106351;28;19911;-55
2022/07/09 07:33:00;;;;;;;;;;;24.70;97.60;;;;;;5105751;28;19909;-55
2022/07/09 07:35:27;;;;;;;;;;;24.70;97.60;;;;;;5105742;28;19916;-55
2022/07/09 07:37:53;;;;;;;;;;;24.70;97.50;;;;;;5105427;28;19911;-56
2022/07/09 07:40:19;;;;;;;;;;;24.70;97.60;;;;;;5105845;28;19908;-56
2022/07/09 07:42:45;;;;;;;;;;;24.70;97.60;;;;;;5105399;28;19908;-57
2022/07/09 07:45:11;;;;;;;;;;;24.70;97.60;;;;;;5105781;28;20184;-54
2022/07/09 07:47:38;;;;;;;;;;;24.70;97.50;;;;;;5105562;28;19909;-57
2022/07/09 07:50:05;;;;;;;;;;;24.70;97.50;;;;;;5105756;28;20158;-61
2022/07/09 07:52:31;;;;;;;;;;;24.60;97.50;;;;;;5105136;28;19908;-57
2022/07/09 07:54:57;;;;;;;;;;;24.60;97.50;;;;;;5105590;28;19916;-57
2022/07/09 07:57:24;;;;;;;;;;;24.60;97.50;;;;;;5105086;28;19950;-55
2022/07/09 07:59:50;;;;;;;;;;;24.60;97.60;;;;;;5105477;28;19982;-53
2022/07/09 08:02:16;;;;;;;;;;;24.60;97.50;;;;;;5105338;28;19908;-56
2022/07/09 08:04:42;;;;;;;;;;;24.60;97.60;;;;;;5105323;28;20029;-57
2022/07/09 08:07:08;;;;;;;;;;;24.60;97.50;;;;;;5104983;28;19908;-57
2022/07/09 08:09:34;;;;;;;;;;;24.60;97.50;;;;;;5105392;28;19908;-54
2022/07/09 08:12:00;;;;;;;;;;;24.60;97.50;;;;;;5104659;28;19908;-54
2022/07/09 08:14:27;;;;;;;;;;;24.60;97.40;;;;;;5105362;28;19938;-56
2022/07/09 08:16:53;;;;;;;;;;;24.60;97.40;;;;;;5104999;28;19908;-56
2022/07/09 08:19:19;;;;;;;;;;;24.60;97.40;;;;;;5105107;28;19912;-56
2022/07/09 08:21:45;;;;;;;;;;;24.60;97.30;;;;;;5104991;28;19971;-58
2022/07/09 08:24:11;;;;;;;;;;;24.60;97.30;;;;;;5104900;28;19954;-58
2022/07/09 08:26:37;;;;;;;;;;;24.60;97.30;;;;;;5104755;28;19915;-55
2022/07/09 08:29:04;;;;;;;;;;;24.60;97.40;;;;;;5104775;28;19915;-55
2022/07/09 08:31:30;;;;;;;;;;;24.60;97.40;;;;;;5104625;28;19914;-55
2022/07/09 08:33:56;;;;;;;;;;;24.60;97.40;;;;;;5104779;28;19908;-57
2022/07/09 08:36:22;;;;;;;;;;;24.60;97.40;;;;;;5104662;28;20026;-55
2022/07/09 08:38:49;;;;;;;;;;;24.60;97.40;;;;;;5104598;28;19983;-55
2022/07/09 08:41:19;;;;;;;;;;;24.60;97.40;;;;;;5104521;28;19915;-55
2022/07/09 08:43:48;;;;;;;;;;;24.60;97.40;;;;;;5104667;28;19908;-56
2022/07/09 08:46:16;;;;;;;;;;;24.60;97.40;;;;;;5104499;28;19975;-57
2022/07/09 08:48:43;;;;;;;;;;;24.60;97.40;;;;;;5104626;28;19908;-54
2022/07/09 08:51:09;;;;;;;;;;;24.60;97.40;;;;;;5104558;28;20104;-55
2022/07/09 08:53:40;;;;;;;;;;;24.60;97.40;;;;;;5104287;28;19912;-50
2022/07/09 08:56:06;;;;;;;;;;;24.60;97.40;;;;;;5104639;28;19914;-57
2022/07/09 08:58:32;;;;;;;;;;;24.60;97.30;;;;;;5104440;28;19924;-56
2022/07/09 09:00:58;;;;;;;;;;;24.60;97.30;;;;;;5104610;28;19943;-55
2022/07/09 09:03:24;;;;;;;;;;;24.60;97.40;;;;;;5104302;28;19904;-58
2022/07/09 09:06:04;;;;;;;;;;;24.60;97.30;;;;;;5104426;28;19908;-56
2022/07/09 09:08:37;;;;;;;;;;;24.60;97.30;;;;;;5104262;28;19910;-52
2022/07/09 09:11:07;;;;;;;;;;;24.60;97.30;;;;;;5104268;28;19915;-48
2022/07/09 09:13:46;;;;;;;;;;;24.60;97.30;;;;;;5104228;28;19916;-57
2022/07/09 09:16:13;;;;;;;;;;;24.60;97.20;;;;;;5104247;28;20158;-54
2022/07/09 09:18:42;;;;;;;;;;;24.60;97.20;;;;;;5103990;28;19919;-56
2022/07/09 09:21:09;;;;;;;;;;;24.50;97.20;;;;;;5104274;28;19915;-54
2022/07/09 09:23:39;;;;;;;;;;;24.60;97.20;;;;;;5104932;28;19969;-53
2022/07/09 09:26:15;;;;;;;;;;;24.50;97.20;;;;;;5108262;28;19971;-54
2022/07/09 09:28:51;;;;;;;;;;;24.50;97.20;;;;;;5108122;28;20204;-51
2022/07/09 09:31:21;;;;;;;;;;;24.50;97.20;;;;;;5107844;28;19967;-55
2022/07/09 09:33:47;;;;;;;;;;;24.50;97.20;;;;;;5108088;28;20180;-55
2022/07/09 09:36:33;;;;;;;;;;;24.50;97.20;;;;;;5107932;28;19920;-56
2022/07/09 09:39:19;;;;;;;;;;;24.50;97.30;;;;;;5107736;28;19955;-59
2022/07/09 09:41:55;;;;;;;;;;;24.50;97.30;;;;;;5107365;28;20216;-54
2022/07/09 09:44:26;;;;;;;;;;;24.40;97.30;;;;;;5108332;28;19908;-58
2022/07/09 09:46:53;;;;;;;;;;;24.50;97.30;;;;;;5107645;28;19908;-58
2022/07/09 09:49:19;;;;;;;;;;;24.50;97.30;;;;;;5107714;28;19908;-56
2022/07/09 09:52:03;;;;;;;;;;;24.50;97.30;;;;;;5107517;28;19908;-53
2022/07/09 09:54:31;;;;;;;;;;;24.50;97.20;;;;;;5107954;28;20049;-58
2022/07/09 09:56:58;;;;;;;;;;;24.50;97.20;;;;;;5107525;28;19908;-56
2022/07/09 09:59:24;;;;;;;;;;;24.50;97.20;;;;;;5107780;28;20100;-57
2022/07/09 10:01:50;;;;;;;;;;;24.40;97.20;;;;;;5107717;28;19909;-54
2022/07/09 10:04:18;;;;;;;;;;;24.50;97.20;;;;;;5107469;28;19954;-56
2022/07/09 10:06:44;;;;;;;;;;;24.50;97.20;;;;;;5107216;28;19912;-62
2022/07/09 10:09:14;;;;;;;;;;;24.50;97.20;;;;;;5107369;28;19908;-54
2022/07/09 10:11:49;;;;;;;;;;;24.50;97.20;;;;;;5107530;28;19931;-59
2022/07/09 10:14:24;;;;;;;;;;;24.50;97.20;;;;;;5107442;28;19954;-58
2022/07/09 10:16:53;;;;;;;;;;;24.50;97.20;;;;;;5107126;28;19916;-56
2022/07/09 10:19:26;;;;;;;;;;;24.50;97.20;;;;;;5107222;28;20185;-56
2022/07/09 10:21:54;;;;;;;;;;;24.50;97.20;;;;;;5106981;28;19913;-56
2022/07/09 10:24:33;;;;;;;;;;;24.50;97.20;;;;;;5107147;28;19903;-55
2022/07/09 10:27:04;;;;;;;;;;;24.50;97.20;;;;;;5107235;28;20135;-56
2022/07/09 10:29:31;;;;;;;;;;;24.50;97.20;;;;;;5107222;28;20137;-57
2022/07/09 10:31:57;;;;;;;;;;;24.50;97.20;;;;;;5106747;28;19935;-59
2022/07/09 10:34:26;;;;;;;;;;;24.50;97.20;;;;;;5106166;28;19912;-58
2022/07/09 10:36:59;;;;;;;;;;;24.50;97.10;;;;;;5106838;28;19908;-57
2022/07/09 10:39:26;;;;;;;;;;;24.40;97.10;;;;;;5106805;28;19912;-57
2022/07/09 10:42:02;;;;;;;;;;;24.50;97.10;;;;;;5106384;28;19908;-59
2022/07/09 10:44:28;;;;;;;;;;;24.40;97.00;;;;;;5106824;28;19908;-57
2022/07/09 10:46:58;;;;;;;;;;;24.40;97.00;;;;;;5106531;28;19958;-58
2022/07/09 10:49:26;;;;;;;;;;;24.40;97.00;;;;;;5106614;28;19915;-54
2022/07/09 10:51:58;;;;;;;;;;;24.50;97.10;;;;;;5106391;28;20153;-56
2022/07/09 10:54:25;;;;;;;;;;;24.50;97.00;;;;;;5106361;28;20026;-58
2022/07/09 10:56:52;;;;;;;;;;;24.50;97.00;;;;;;5106464;28;19915;-56
2022/07/09 10:59:19;;;;;;;;;;;24.40;97.00;;;;;;5106660;28;20013;-55
2022/07/09 11:01:45;;;;;;;;;;;24.50;97.00;;;;;;5106182;28;20052;-60
2022/07/09 11:04:14;;;;;;;;;;;24.50;97.00;;;;;;5106532;28;20073;-57
2022/07/09 11:06:46;;;;;;;;;;;24.50;97.00;;;;;;5106218;28;19949;-53
2022/07/09 11:09:13;;;;;;;;;;;24.50;96.90;;;;;;5106164;28;19908;-56
2022/07/09 11:11:42;;;;;;;;;;;24.50;96.90;;;;;;5105904;28;19908;-52
2022/07/09 11:14:11;;;;;;;;;;;24.50;97.00;;;;;;5106116;28;20192;-58
2022/07/09 11:16:38;;;;;;;;;;;24.60;96.90;;;;;;5105587;28;19915;-51
2022/07/09 11:19:16;;;;;;;;;;;24.60;96.80;;;;;;5106216;28;19912;-54
2022/07/09 11:21:42;;;;;;;;;;;24.60;96.80;;;;;;5105863;28;20108;-53
2022/07/09 11:24:23;;;;;;;;;;;24.60;96.70;;;;;;5105908;28;20074;-53
2022/07/09 11:26:49;;;;;;;;;;;24.60;96.60;;;;;;5105711;28;20208;-53
2022/07/09 11:29:19;;;;;;;;;;;24.70;96.60;;;;;;5105769;28;19908;-56
2022/07/09 11:31:49;;;;;;;;;;;24.70;96.50;;;;;;5105648;28;19908;-56
2022/07/09 11:34:16;;;;;;;;;;;24.70;96.50;;;;;;5105411;28;19912;-57
2022/07/09 11:36:43;;;;;;;;;;;24.80;96.50;;;;;;5105297;28;19916;-54
2022/07/09 11:39:10;;;;;;;;;;;24.80;96.30;;;;;;5105442;28;19912;-57
2022/07/09 11:41:42;;;;;;;;;;;24.80;96.30;;;;;;5105426;28;20212;-55
2022/07/09 11:44:19;;;;;;;;;;;24.90;96.20;;;;;;5104896;28;20255;-54
2022/07/09 11:46:45;;;;;;;;;;;24.90;96.00;;;;;;5104600;28;19926;-54
2022/07/09 11:49:15;;;;;;;;;;;24.90;96.10;;;;;;5105371;28;19982;-56
2022/07/09 11:51:42;;;;;;;;;;;24.90;96.10;;;;;;5105281;28;20137;-55
2022/07/09 11:54:09;;;;;;;;;;;24.90;96.10;;;;;;5105347;28;20089;-53
2022/07/09 11:56:43;;;;;;;;;;;25.00;96.20;;;;;;5105010;28;19904;-53
2022/07/09 11:59:09;;;;;;;;;;;25.00;96.30;;;;;;5105130;28;19951;-55
2022/07/09 12:01:36;;;;;;;;;;;24.90;96.30;;;;;;5105192;28;19904;-54
2022/07/09 12:04:02;;;;;;;;;;;24.90;96.40;;;;;;5104907;28;19919;-52
2022/07/09 12:06:28;;;;;;;;;;;24.90;96.40;;;;;;5104989;28;19927;-54
2022/07/09 12:09:04;;;;;;;;;;;25.10;96.40;;;;;;5105040;28;20087;-55
2022/07/09 12:11:30;;;;;;;;;;;25.10;96.30;;;;;;5105323;28;20181;-53
2022/07/09 12:13:57;;;;;;;;;;;25.20;96.30;;;;;;5104942;28;19919;-55
2022/07/09 12:16:24;;;;;;;;;;;25.30;96.20;;;;;;5104854;28;20073;-56
2022/07/09 12:18:50;;;;;;;;;;;25.30;96.20;;;;;;5104445;28;19939;-54
2022/07/09 12:21:16;;;;;;;;;;;25.40;96.20;;;;;;5104696;28;20231;-59
2022/07/09 12:23:42;;;;;;;;;;;25.40;96.10;;;;;;5104590;28;19947;-59
2022/07/09 12:26:08;;;;;;;;;;;25.50;96.10;;;;;;5104364;28;19975;-54
2022/07/09 12:28:34;;;;;;;;;;;25.50;96.10;;;;;;5104746;28;19919;-54
2022/07/09 12:31:01;;;;;;;;;;;25.60;96.10;;;;;;5104556;28;20123;-58
2022/07/09 12:33:27;;;;;;;;;;;25.60;96.00;;;;;;5104440;28;19936;-60
2022/07/09 12:35:53;;;;;;;;;;;25.70;96.00;;;;;;5104673;28;20196;-53
2022/07/09 12:38:19;;;;;;;;;;;25.70;96.00;;;;;;5104680;28;19994;-55
2022/07/09 12:40:45;;;;;;;;;;;25.80;96.00;;;;;;5104484;28;19931;-53
2022/07/09 12:43:11;;;;;;;;;;;25.80;96.00;;;;;;5104194;28;19909;-57
2022/07/09 12:45:37;;;;;;;;;;;25.80;95.90;;;;;;5104385;28;20205;-58
2022/07/09 12:48:04;;;;;;;;;;;25.90;96.00;;;;;;5104263;28;20188;-58
2022/07/09 12:50:30;;;;;;;;;;;25.90;96.00;;;;;;5104745;28;19916;-54
2022/07/09 12:52:56;;;;;;;;;;;25.90;96.00;;;;;;5104328;28;19908;-56
2022/07/09 12:55:22;;;;;;;;;;;25.90;96.00;;;;;;5104759;28;19908;-55
2022/07/09 12:57:48;;;;;;;;;;;25.90;96.00;;;;;;5105354;28;20082;-57
2022/07/09 13:00:14;;;;;;;;;;;25.90;96.10;;;;;;5108842;28;19908;-54
2022/07/09 13:02:41;;;;;;;;;;;25.90;96.10;;;;;;5108774;28;19908;-50
2022/07/09 13:05:09;;;;;;;;;;;25.90;96.20;;;;;;5108631;28;19940;-54
2022/07/09 13:07:35;;;;;;;;;;;25.90;96.10;;;;;;5108365;28;19908;-54
2022/07/09 13:10:01;;;;;;;;;;;26.00;96.10;;;;;;5108539;28;19912;-58
2022/07/09 13:12:27;;;;;;;;;;;26.00;96.20;;;;;;5108314;28;20100;-55
2022/07/09 13:14:53;;;;;;;;;;;26.00;96.20;;;;;;5108660;28;19943;-51
2022/07/09 13:17:19;;;;;;;;;;;26.10;96.30;;;;;;5108313;28;19936;-53
2022/07/09 13:19:46;;;;;;;;;;;26.10;96.20;;;;;;5108566;28;20223;-56
2022/07/09 13:22:12;;;;;;;;;;;26.10;96.10;;;;;;5107816;28;19907;-58
2022/07/09 13:24:38;;;;;;;;;;;26.10;96.10;;;;;;5108238;28;20003;-58
2022/07/09 13:27:08;;;;;;;;;;;26.10;96.00;;;;;;5107772;28;20131;-56
2022/07/09 13:29:34;;;;;;;;;;;26.10;96.30;;;;;;5108108;28;19979;-57
2022/07/09 13:32:00;;;;;;;;;;;26.10;96.10;;;;;;5108058;28;19908;-58
2022/07/09 13:34:27;;;;;;;;;;;26.10;96.00;;;;;;5107611;28;19928;-55
2022/07/09 13:36:53;;;;;;;;;;;26.10;96.00;;;;;;5108128;28;19966;-55
2022/07/09 13:39:19;;;;;;;;;;;26.10;96.00;;;;;;5108023;28;20220;-57
2022/07/09 13:41:46;;;;;;;;;;;26.10;96.10;;;;;;5107900;28;19908;-60
2022/07/09 13:44:12;;;;;;;;;;;26.20;96.10;;;;;;5108246;28;19916;-55
2022/07/09 13:46:38;;;;;;;;;;;26.20;96.10;;;;;;5107633;28;19908;-54
2022/07/09 13:49:04;;;;;;;;;;;26.20;96.00;;;;;;5114227;28;19912;-53
2022/07/09 13:51:30;;;;;;;;;;;26.30;95.90;;;;;;5127487;28;19942;-56
2022/07/09 13:53:56;;;;;;;;;;;26.30;95.80;;;;;;5127532;28;20148;-57
2022/07/09 13:56:22;;;;;;;;;;;26.30;95.70;;;;;;5121949;28;19989;-55
2022/07/09 13:58:48;;;;;;;;;;;26.30;95.60;;;;;;5127923;28;19919;-53
2022/07/09 14:01:15;;;;;;;;;;;26.30;95.60;;;;;;5125964;28;20262;-59
2022/07/09 14:03:41;;;;;;;;;;;26.40;95.60;;;;;;5127777;28;19947;-55
2022/07/09 14:06:07;;;;;;;;;;;26.40;95.50;;;;;;5127485;28;19975;-56
2022/07/09 14:08:33;;;;;;;;;;;26.40;95.40;;;;;;5127466;28;19919;-56
2022/07/09 14:11:00;;;;;;;;;;;26.40;95.30;;;;;;5126636;28;19904;-57
2022/07/09 14:13:26;;;;;;;;;;;26.40;95.30;;;;;;5127675;28;20069;-54
2022/07/09 14:15:55;;;;;;;;;;;26.40;95.20;;;;;;5127734;28;19904;-54
2022/07/09 14:18:22;;;;;;;;;;;26.40;95.10;;;;;;5116600;28;19983;-56